Time;durP1;ratioP1;P1;durP2;ratioP2;P2;SDS_P1;SDS_P2;PMS_P1;PMS_P2;Temp;Humidity;BMP_temperature;BMP_pressure;BME280_temperature;BME280_humidity;BME280_pressure;Samples;Min_cycle;Max_cycle;Signal;HPM_P1;HPM_P2
2021/05/30 00:02:03;;;;;;;21.27;14.07;;;9.70;88.80;;;;;;5029184;28;20433;-81
2021/05/30 00:04:29;;;;;;;25.35;15.68;;;9.80;88.70;;;;;;5028432;28;20394;-87
2021/05/30 00:06:54;;;;;;;27.10;15.93;;;9.70;89.40;;;;;;5028074;28;20384;-83
2021/05/30 00:09:20;;;;;;;24.33;15.30;;;9.70;88.70;;;;;;5028929;28;20731;-81
2021/05/30 00:11:46;;;;;;;27.83;15.98;;;9.60;88.50;;;;;;5028953;28;20387;-81
2021/05/30 00:14:12;;;;;;;24.65;15.27;;;9.70;88.30;;;;;;5027480;28;20868;-82
2021/05/30 00:16:37;;;;;;;22.50;15.33;;;9.70;88.80;;;;;;5028313;28;20371;-80
2021/05/30 00:19:03;;;;;;;22.40;14.90;;;9.60;89.00;;;;;;5027267;28;20414;-83
2021/05/30 00:21:30;;;;;;;24.13;15.82;;;9.50;89.10;;;;;;5027235;28;20431;-81
2021/05/30 00:23:58;;;;;;;22.50;14.90;;;9.60;88.80;;;;;;5027954;28;20778;-84
2021/05/30 00:26:24;;;;;;;25.75;15.40;;;9.60;88.60;;;;;;5028462;28;20379;-81
2021/05/30 00:28:49;;;;;;;23.98;15.07;;;9.60;88.60;;;;;;5027416;28;20426;-81
2021/05/30 00:31:15;;;;;;;25.67;15.80;;;9.50;88.60;;;;;;5027131;28;20871;-83
2021/05/30 00:33:41;;;;;;;28.37;15.60;;;9.50;89.20;;;;;;5028385;28;20380;-81
2021/05/30 00:36:07;;;;;;;24.42;15.32;;;9.40;89.30;;;;;;5028396;28;20810;-84
2021/05/30 00:38:32;;;;;;;27.83;16.10;;;9.50;89.60;;;;;;5026255;28;20379;-84
2021/05/30 00:40:58;;;;;;;25.97;16.03;;;9.40;89.40;;;;;;5027124;28;20414;-81
2021/05/30 00:43:24;;;;;;;24.40;15.27;;;9.40;89.80;;;;;;5027097;28;20388;-81
2021/05/30 00:45:50;;;;;;;23.83;15.68;;;9.40;89.80;;;;;;5027181;28;20431;-82
2021/05/30 00:48:16;;;;;;;24.48;15.45;;;9.40;89.90;;;;;;5027938;28;20395;-81
2021/05/30 00:50:42;;;;;;;27.17;15.85;;;9.30;90.20;;;;;;5027131;28;20520;-81
2021/05/30 00:53:09;;;;;;;25.60;16.13;;;9.30;90.50;;;;;;5026818;28;20883;-84
2021/05/30 00:55:36;;;;;;;26.48;16.30;;;9.30;90.00;;;;;;5028452;28;20387;-85
2021/05/30 00:58:01;;;;;;;27.35;15.38;;;9.30;90.20;;;;;;5027441;28;20380;-84
2021/05/30 01:00:27;;;;;;;21.43;14.73;;;9.40;89.30;;;;;;5027069;28;20437;-86
2021/05/30 01:02:52;;;;;;;23.87;14.80;;;9.30;89.40;;;;;;5026599;28;20387;-82
2021/05/30 01:05:18;;;;;;;24.40;14.52;;;9.40;89.20;;;;;;5028380;28;20936;-81
2021/05/30 01:07:46;;;;;;;26.02;15.70;;;9.20;89.90;;;;;;5027793;28;20900;-85
2021/05/30 01:10:33;;;;;;;25.88;15.18;;;9.10;90.20;;;;;;5026780;28;20391;-82
2021/05/30 01:13:01;;;;;;;25.83;14.97;;;9.10;90.80;;;;;;5026827;28;20403;-82
2021/05/30 01:15:27;;;;;;;27.60;14.90;;;9.10;90.80;;;;;;5026414;28;20390;-82
2021/05/30 01:17:55;;;;;;;23.35;14.05;;;9.00;90.50;;;;;;5027837;28;20403;-82
2021/05/30 01:20:22;;;;;;;22.15;13.73;;;9.00;90.40;;;;;;5027556;28;20948;-82
2021/05/30 01:22:48;;;;;;;23.50;14.77;;;9.10;90.30;;;;;;5028074;28;20437;-86
2021/05/30 01:25:19;;;;;;;22.45;13.63;;;9.00;90.10;;;;;;5027564;28;20383;-84
2021/05/30 01:27:45;;;;;;;23.50;13.32;;;9.00;90.40;;;;;;5026470;28;20867;-82
2021/05/30 01:30:11;;;;;;;23.42;14.27;;;9.10;89.20;;;;;;5026468;28;20387;-82
2021/05/30 01:32:37;;;;;;;23.83;13.47;;;9.00;90.30;;;;;;5027896;28;20383;-82
2021/05/30 01:35:04;;;;;;;22.33;13.67;;;8.90;90.80;;;;;;5026152;28;20456;-82
2021/05/30 01:37:29;;;;;;;22.20;13.73;;;8.90;90.50;;;;;;5027581;28;20886;-81
2021/05/30 01:39:55;;;;;;;25.63;13.70;;;8.90;90.90;;;;;;5027879;28;20380;-82
2021/05/30 01:42:21;;;;;;;21.67;13.10;;;8.80;91.40;;;;;;5027196;28;20759;-85
2021/05/30 01:44:46;;;;;;;20.90;13.35;;;8.80;91.10;;;;;;5027782;28;20410;-84
2021/05/30 01:47:12;;;;;;;23.40;12.95;;;8.90;90.20;;;;;;5026817;28;20384;-82
2021/05/30 01:49:37;;;;;;;20.88;13.20;;;9.00;89.60;;;;;;5027768;28;20375;-82
2021/05/30 01:52:04;;;;;;;24.00;14.20;;;8.90;89.60;;;;;;5027094;28;20879;-84
2021/05/30 01:54:30;;;;;;;24.87;13.80;;;9.00;89.50;;;;;;5027677;28;20445;-82
2021/05/30 01:56:57;;;;;;;20.97;13.73;;;8.80;90.50;;;;;;5026821;28;20892;-85
2021/05/30 01:59:28;;;;;;;23.70;13.93;;;8.70;90.90;;;;;;5027643;28;20380;-84
2021/05/30 02:01:55;;;;;;;20.92;13.43;;;8.70;91.00;;;;;;5027224;28;20408;-82
2021/05/30 02:04:26;;;;;;;23.65;13.75;;;8.70;90.50;;;;;;5027406;28;20482;-82
2021/05/30 02:06:54;;;;;;;21.13;13.18;;;8.80;89.80;;;;;;5025562;28;20919;-84
2021/05/30 02:09:20;;;;;;;23.33;14.77;;;8.90;89.50;;;;;;5026326;28;20471;-82
2021/05/30 02:11:46;;;;;;;22.65;15.02;;;8.70;90.40;;;;;;5027313;28;20444;-82
2021/05/30 02:14:13;;;;;;;22.38;13.65;;;8.60;91.00;;;;;;5026904;28;20891;-83
2021/05/30 02:16:40;;;;;;;25.38;14.25;;;8.70;90.80;;;;;;5025597;28;20427;-86
2021/05/30 02:19:05;;;;;;;20.48;13.93;;;8.80;90.10;;;;;;5026754;28;20380;-82
2021/05/30 02:21:41;;;;;;;21.80;14.43;;;8.60;91.10;;;;;;5027126;28;20400;-83
2021/05/30 02:24:07;;;;;;;22.65;15.60;;;8.70;90.30;;;;;;5026715;28;20463;-82
2021/05/30 02:26:33;;;;;;;24.15;14.77;;;8.60;90.80;;;;;;5026895;28;20379;-82
2021/05/30 02:28:59;;;;;;;24.55;15.00;;;8.40;91.50;;;;;;5026589;28;20394;-82
2021/05/30 02:31:24;;;;;;;22.40;14.80;;;8.40;91.60;;;;;;5027111;28;20386;-82
2021/05/30 02:33:50;;;;;;;24.23;15.13;;;8.40;91.70;;;;;;5026593;28;20378;-86
2021/05/30 02:36:15;;;;;;;26.60;15.85;;;8.60;91.00;;;;;;5026894;28;20473;-84
2021/05/30 02:38:41;;;;;;;26.43;15.57;;;8.40;91.40;;;;;;5026924;28;20386;-83
2021/05/30 02:41:07;;;;;;;23.37;15.13;;;8.40;91.70;;;;;;5026462;28;20840;-83
2021/05/30 02:43:32;;;;;;;23.30;15.33;;;8.30;92.00;;;;;;5026995;28;20379;-82
2021/05/30 02:45:58;;;;;;;24.53;15.00;;;8.40;90.90;;;;;;5026722;28;20552;-82
2021/05/30 02:48:23;;;;;;;22.98;14.70;;;8.50;90.30;;;;;;5025174;28;20390;-83
2021/05/30 02:50:58;;;;;;;27.17;16.83;;;8.60;90.10;;;;;;5025192;28;20388;-84
2021/05/30 02:53:28;;;;;;;25.10;15.98;;;8.40;91.20;;;;;;5026664;28;20376;-84
2021/05/30 02:55:54;;;;;;;29.17;16.10;;;8.30;91.90;;;;;;5026534;28;20736;-83
2021/05/30 02:58:20;;;;;;;21.17;14.18;;;8.20;92.20;;;;;;5025854;28;20392;-82
2021/05/30 03:00:45;;;;;;;22.03;14.67;;;8.20;92.10;;;;;;5024626;28;20403;-84
2021/05/30 03:03:11;;;;;;;25.87;14.60;;;8.40;91.10;;;;;;5025358;28;20476;-82
2021/05/30 03:05:37;;;;;;;22.73;15.20;;;8.40;90.00;;;;;;5026214;28;20387;-83
2021/05/30 03:08:03;;;;;;;28.00;15.93;;;8.40;90.40;;;;;;5026304;28;20375;-82
2021/05/30 03:10:28;;;;;;;24.73;16.10;;;8.30;90.80;;;;;;5026512;28;20414;-82
2021/05/30 03:12:54;;;;;;;23.83;15.20;;;8.20;91.40;;;;;;5026101;28;20382;-85
2021/05/30 03:15:19;;;;;;;25.67;15.97;;;8.20;91.00;;;;;;5026199;28;20412;-84
2021/05/30 03:17:45;;;;;;;26.48;15.55;;;8.10;91.50;;;;;;5025747;28;20428;-82
2021/05/30 03:20:11;;;;;;;24.15;15.27;;;8.10;91.40;;;;;;5025559;28;20471;-82
2021/05/30 03:22:37;;;;;;;26.98;15.27;;;8.20;90.80;;;;;;5028228;28;20875;-83
2021/05/30 03:25:03;;;;;;;27.48;16.00;;;8.10;91.40;;;;;;5029789;28;20404;-86
2021/05/30 03:27:29;;;;;;;26.40;16.80;;;8.00;91.60;;;;;;5027693;28;20395;-83
2021/05/30 03:29:56;;;;;;;25.33;15.73;;;8.00;92.20;;;;;;5029994;28;20440;-84
2021/05/30 03:32:22;;;;;;;29.60;17.07;;;7.90;92.30;;;;;;5029515;28;20791;-83
2021/05/30 03:34:48;;;;;;;26.17;16.60;;;7.90;92.20;;;;;;5029149;28;20466;-84
2021/05/30 03:37:13;;;;;;;25.23;16.10;;;7.90;92.60;;;;;;5028823;28;20441;-82
2021/05/30 03:39:41;;;;;;;28.80;17.00;;;7.90;92.60;;;;;;5029213;28;20701;-83
2021/05/30 03:42:10;;;;;;;30.08;16.55;;;7.90;92.30;;;;;;5029544;28;20501;-82
2021/05/30 03:44:36;;;;;;;24.77;15.20;;;8.00;91.80;;;;;;5029366;28;20466;-82
2021/05/30 03:47:02;;;;;;;26.13;15.88;;;8.00;91.40;;;;;;5029437;28;20463;-84
2021/05/30 03:49:27;;;;;;;23.33;15.35;;;8.10;90.90;;;;;;5029542;28;20761;-81
2021/05/30 03:51:53;;;;;;;30.85;16.33;;;8.10;90.70;;;;;;5029719;28;20458;-82
2021/05/30 03:54:19;;;;;;;27.90;16.00;;;8.00;91.60;;;;;;5029184;28;20424;-84
2021/05/30 03:56:44;;;;;;;25.65;14.93;;;8.00;92.10;;;;;;5029275;28;20386;-84
2021/05/30 03:59:10;;;;;;;28.83;16.23;;;8.00;91.60;;;;;;5029210;28;20390;-82
2021/05/30 04:01:37;;;;;;;26.37;15.50;;;8.10;91.00;;;;;;5028162;28;20422;-82
2021/05/30 04:04:03;;;;;;;26.90;16.42;;;8.10;91.00;;;;;;5029304;28;20406;-85
2021/05/30 04:06:29;;;;;;;27.48;16.80;;;8.00;92.00;;;;;;5029590;28;20387;-83
2021/05/30 04:08:54;;;;;;;30.60;17.13;;;8.00;91.90;;;;;;5028953;28;20379;-82
2021/05/30 04:11:20;;;;;;;25.67;16.83;;;8.00;92.40;;;;;;5029219;28;20402;-83
2021/05/30 04:13:45;;;;;;;25.60;15.97;;;8.10;92.50;;;;;;5029311;28;20430;-83
2021/05/30 04:16:11;;;;;;;29.03;16.47;;;8.10;92.30;;;;;;5029019;28;20387;-82
2021/05/30 04:18:36;;;;;;;31.73;18.10;;;8.20;91.80;;;;;;5029258;28;20919;-82
2021/05/30 04:21:03;;;;;;;30.48;17.02;;;8.20;92.10;;;;;;5114263;27;20478;-82
2021/05/30 04:23:29;;;;;;;28.63;17.52;;;8.10;92.30;;;;;;5028681;28;20376;-83
2021/05/30 04:25:57;;;;;;;28.40;17.65;;;8.10;92.90;;;;;;5028086;28;20387;-82
2021/05/30 04:28:22;;;;;;;29.75;17.17;;;8.20;92.70;;;;;;5114339;27;20383;-82
2021/05/30 04:30:48;;;;;;;29.90;17.58;;;8.40;91.60;;;;;;5028668;28;20390;-83
2021/05/30 04:33:13;;;;;;;31.33;18.52;;;8.40;91.20;;;;;;5028009;28;20380;-85
2021/05/30 04:35:39;;;;;;;33.63;18.67;;;8.50;91.50;;;;;;5028696;28;20383;-83
2021/05/30 04:38:05;;;;;;;32.25;19.20;;;8.60;92.00;;;;;;5027200;28;20387;-82
2021/05/30 04:40:31;;;;;;;36.20;19.27;;;8.60;91.90;;;;;;5028599;28;20470;-82
2021/05/30 04:42:56;;;;;;;33.00;19.85;;;8.70;92.00;;;;;;5027604;28;20375;-82
2021/05/30 04:45:22;;;;;;;36.38;19.90;;;8.70;92.30;;;;;;5028543;28;20859;-83
2021/05/30 04:47:48;;;;;;;43.88;24.85;;;8.70;92.30;;;;;;5027713;28;20387;-84
2021/05/30 04:50:15;;;;;;;36.10;21.13;;;8.90;92.30;;;;;;5027382;28;20721;-82
2021/05/30 04:52:41;;;;;;;34.15;19.92;;;8.90;92.00;;;;;;5113448;27;20518;-84
2021/05/30 04:55:12;;;;;;;37.30;20.53;;;8.90;92.10;;;;;;5027183;28;20885;-83
2021/05/30 04:57:41;;;;;;;33.72;20.10;;;8.90;92.10;;;;;;5026399;28;20391;-83
2021/05/30 05:00:10;;;;;;;33.28;19.40;;;8.90;92.00;;;;;;5028241;28;20376;-82
2021/05/30 05:02:36;;;;;;;30.60;19.70;;;9.00;91.80;;;;;;5026726;28;20411;-82
2021/05/30 05:05:02;;;;;;;31.43;18.63;;;9.00;91.50;;;;;;5027862;28;20402;-83
2021/05/30 05:07:27;;;;;;;31.50;17.40;;;8.80;92.20;;;;;;5027944;28;20743;-82
2021/05/30 05:09:53;;;;;;;34.40;19.10;;;8.80;92.20;;;;;;5027797;28;20367;-83
2021/05/30 05:12:18;;;;;;;34.37;18.97;;;9.00;91.90;;;;;;5027794;28;20387;-83
2021/05/30 05:14:44;;;;;;;33.97;18.83;;;9.10;91.60;;;;;;5025961;28;20580;-82
2021/05/30 05:17:09;;;;;;;30.30;18.90;;;9.20;91.50;;;;;;5027217;28;20400;-82
2021/05/30 05:19:35;;;;;;;34.00;19.65;;;9.20;91.30;;;;;;5027341;28;20836;-83
2021/05/30 05:22:01;;;;;;;31.07;17.83;;;9.30;91.50;;;;;;5026105;28;20938;-82
2021/05/30 05:24:27;;;;;;;30.93;18.33;;;9.30;91.40;;;;;;5112645;27;20399;-82
2021/05/30 05:26:53;;;;;;;29.77;16.55;;;9.20;91.30;;;;;;5027220;28;20386;-83
2021/05/30 05:29:18;;;;;;;30.58;16.35;;;9.40;90.80;;;;;;5027784;28;20728;-82
2021/05/30 05:31:44;;;;;;;28.50;15.95;;;9.40;90.30;;;;;;5026614;28;20743;-82
2021/05/30 05:34:09;;;;;;;27.40;16.37;;;9.50;90.30;;;;;;5026451;28;20423;-83
2021/05/30 05:36:35;;;;;;;26.87;15.77;;;9.50;90.20;;;;;;5025979;28;20466;-82
2021/05/30 05:39:00;;;;;;;24.63;15.77;;;9.50;90.00;;;;;;5027710;28;20391;-82
2021/05/30 05:41:26;;;;;;;28.70;14.88;;;9.70;90.10;;;;;;5025798;28;20865;-83
2021/05/30 05:43:52;;;;;;;24.60;14.88;;;9.70;89.90;;;;;;5026549;28;20436;-82
2021/05/30 05:46:17;;;;;;;27.15;14.35;;;9.70;89.50;;;;;;5027271;28;20781;-82
2021/05/30 05:48:43;;;;;;;25.97;14.83;;;9.80;89.60;;;;;;5025827;28;20396;-82
2021/05/30 05:51:08;;;;;;;22.23;13.93;;;9.90;88.70;;;;;;5027212;28;20382;-83
2021/05/30 05:53:34;;;;;;;23.90;14.80;;;10.00;88.70;;;;;;5027664;28;20376;-85
2021/05/30 05:55:59;;;;;;;22.17;14.25;;;9.90;88.50;;;;;;5027333;28;20877;-82
2021/05/30 05:58:25;;;;;;;25.73;15.05;;;10.10;88.30;;;;;;5027141;28;20398;-85
2021/05/30 06:00:51;;;;;;;29.00;14.60;;;10.00;88.90;;;;;;5025675;28;20399;-82
2021/05/30 06:03:16;;;;;;;21.40;14.18;;;10.10;88.60;;;;;;5026234;28;20398;-84
2021/05/30 06:05:42;;;;;;;26.70;14.43;;;10.20;88.90;;;;;;5026920;28;20447;-83
2021/05/30 06:08:08;;;;;;;22.53;13.43;;;10.30;87.90;;;;;;5025335;28;20785;-83
2021/05/30 06:10:34;;;;;;;23.00;14.07;;;10.30;87.70;;;;;;5042612;28;20904;-82
2021/05/30 06:13:03;;;;;;;21.92;14.10;;;10.40;87.70;;;;;;5025644;28;20394;-83
2021/05/30 06:15:29;;;;;;;26.00;14.27;;;10.50;87.40;;;;;;5025596;28;20403;-84
2021/05/30 06:18:06;;;;;;;24.90;14.00;;;10.50;86.80;;;;;;5024621;28;20435;-83
2021/05/30 06:20:32;;;;;;;20.70;13.77;;;10.50;88.00;;;;;;5109202;27;20478;-83
2021/05/30 06:22:58;;;;;;;25.52;13.70;;;10.50;88.00;;;;;;5111069;27;20786;-85
2021/05/30 06:25:26;;;;;;;22.37;13.07;;;10.60;87.10;;;;;;5026002;28;20379;-83
2021/05/30 06:27:55;;;;;;;19.67;12.85;;;10.80;86.10;;;;;;5111097;27;20391;-83
2021/05/30 06:30:28;;;;;;;24.27;13.68;;;10.80;86.10;;;;;;5026698;28;20387;-83
2021/05/30 06:32:54;;;;;;;23.20;12.95;;;10.80;86.40;;;;;;5111282;27;20434;-83
2021/05/30 06:35:21;;;;;;;22.45;13.68;;;10.80;86.90;;;;;;5026774;28;20411;-84
2021/05/30 06:37:47;;;;;;;21.30;13.05;;;11.10;85.30;;;;;;5026660;28;20432;-85
2021/05/30 06:40:13;;;;;;;19.10;11.93;;;10.90;86.70;;;;;;5025799;28;20762;-82
2021/05/30 06:42:38;;;;;;;25.02;12.45;;;11.00;86.20;;;;;;5026489;28;20821;-82
2021/05/30 06:45:05;;;;;;;18.33;12.07;;;11.10;86.70;;;;;;5112154;28;20794;-86
2021/05/30 06:47:31;;;;;;;23.15;11.98;;;11.30;85.00;;;;;;5026073;28;20381;-82
2021/05/30 06:49:56;;;;;;;18.67;11.65;;;11.30;85.60;;;;;;5026300;28;20459;-83
2021/05/30 06:52:22;;;;;;;22.33;12.05;;;11.40;84.80;;;;;;5026309;28;20395;-83
2021/05/30 06:54:47;;;;;;;20.08;11.98;;;11.50;84.00;;;;;;5026222;28;20379;-82
2021/05/30 06:57:13;;;;;;;20.93;11.57;;;11.50;84.20;;;;;;5029735;28;20423;-82
2021/05/30 06:59:39;;;;;;;19.17;11.65;;;11.80;82.70;;;;;;5030295;28;20384;-84
2021/05/30 07:02:05;;;;;;;19.55;11.25;;;11.80;83.10;;;;;;5115642;27;20411;-82
2021/05/30 07:04:31;;;;;;;19.17;10.63;;;11.90;82.90;;;;;;5030133;28;20387;-85
2021/05/30 07:06:56;;;;;;;15.53;10.27;;;11.90;82.40;;;;;;5115724;27;20383;-82
2021/05/30 07:09:22;;;;;;;18.73;10.20;;;12.00;82.50;;;;;;5029990;28;20935;-82
2021/05/30 07:11:48;;;;;;;18.17;10.18;;;12.00;81.30;;;;;;5115620;27;20395;-81
2021/05/30 07:14:14;;;;;;;16.47;9.57;;;12.00;81.40;;;;;;5029833;28;20388;-82
2021/05/30 07:16:39;;;;;;;18.63;9.83;;;12.20;80.20;;;;;;5029069;28;20780;-83
2021/05/30 07:19:05;;;;;;;14.77;10.10;;;12.20;81.80;;;;;;5029604;28;20719;-85
2021/05/30 07:21:30;;;;;;;14.32;9.70;;;12.20;81.50;;;;;;5029908;28;20824;-81
2021/05/30 07:23:56;;;;;;;15.80;10.00;;;12.30;80.90;;;;;;5029720;28;20728;-81
2021/05/30 07:26:21;;;;;;;15.93;9.90;;;12.40;80.20;;;;;;5029669;28;20391;-81
2021/05/30 07:28:47;;;;;;;18.23;8.52;;;12.60;79.90;;;;;;5029365;28;20752;-88
2021/05/30 07:31:13;;;;;;;13.40;8.43;;;12.80;78.10;;;;;;5029570;28;20387;-83
2021/05/30 07:33:39;;;;;;;15.18;7.78;;;12.90;76.60;;;;;;5029381;28;20847;-83
2021/05/30 07:36:05;;;;;;;13.98;8.13;;;13.00;76.70;;;;;;5029857;28;20419;-83
2021/05/30 07:38:32;;;;;;;15.68;7.22;;;12.90;77.10;;;;;;5115014;27;20434;-82
2021/05/30 07:40:58;;;;;;;15.33;7.80;;;12.80;77.40;;;;;;5029662;28;20717;-81
2021/05/30 07:43:24;;;;;;;10.80;7.30;;;12.90;79.10;;;;;;5029409;28;20790;-83
2021/05/30 07:45:50;;;;;;;16.77;7.60;;;12.90;78.20;;;;;;5028266;28;20491;-81
2021/05/30 07:48:15;;;;;;;15.30;8.33;;;12.90;77.60;;;;;;5028974;28;20803;-82
2021/05/30 07:50:41;;;;;;;12.43;8.10;;;13.00;77.00;;;;;;5029538;28;20387;-80
2021/05/30 07:53:06;;;;;;;13.57;7.70;;;13.10;78.00;;;;;;5029185;28;20379;-81
2021/05/30 07:55:32;;;;;;;12.55;7.35;;;13.20;75.30;;;;;;5028467;28;20391;-80
2021/05/30 07:57:58;;;;;;;12.57;7.37;;;13.20;76.30;;;;;;5027739;28;20400;-80
2021/05/30 08:00:24;;;;;;;14.33;7.20;;;13.40;74.20;;;;;;5026776;28;20736;-80
2021/05/30 08:02:51;;;;;;;9.98;6.40;;;13.70;73.00;;;;;;5028876;28;20403;-80
2021/05/30 08:05:21;;;;;;;11.37;7.00;;;13.70;73.40;;;;;;5029216;28;20839;-80
2021/05/30 08:07:48;;;;;;;9.13;7.15;;;13.70;72.20;;;;;;5027703;28;20376;-81
2021/05/30 08:10:15;;;;;;;11.20;7.40;;;13.70;72.60;;;;;;5114707;27;20388;-80
2021/05/30 08:12:41;;;;;;;10.40;7.00;;;13.80;71.90;;;;;;5029172;28;20882;-80
2021/05/30 08:15:09;;;;;;;13.70;6.22;;;13.60;72.40;;;;;;5113354;27;20415;-81
2021/05/30 08:17:35;;;;;;;9.07;6.20;;;13.90;72.50;;;;;;5028477;28;20489;-80
2021/05/30 08:20:02;;;;;;;11.00;6.57;;;14.20;69.90;;;;;;5029067;28;20423;-79
2021/05/30 08:22:29;;;;;;;9.48;5.80;;;14.10;69.30;;;;;;5114075;27;20410;-79
2021/05/30 08:24:55;;;;;;;10.68;6.72;;;14.40;68.20;;;;;;5114505;27;20391;-81
2021/05/30 08:27:21;;;;;;;10.30;5.53;;;14.40;70.30;;;;;;5114244;27;20420;-84
2021/05/30 08:29:46;;;;;;;11.63;6.60;;;14.40;67.40;;;;;;5028736;28;20391;-81
2021/05/30 08:32:13;;;;;;;12.25;5.93;;;14.60;68.00;;;;;;5028037;28;20535;-80
2021/05/30 08:34:39;;;;;;;9.77;5.50;;;14.60;66.50;;;;;;5114446;27;20388;-80
2021/05/30 08:37:04;;;;;;;8.17;5.00;;;14.60;65.80;;;;;;5027962;28;20394;-81
2021/05/30 08:39:30;;;;;;;10.50;5.37;;;14.70;66.80;;;;;;5114420;27;20387;-82
2021/05/30 08:41:56;;;;;;;6.80;5.10;;;14.80;66.90;;;;;;5028345;28;20463;-82
2021/05/30 08:44:22;;;;;;;8.45;4.97;;;15.00;64.30;;;;;;5027456;28;20398;-85
2021/05/30 08:46:47;;;;;;;12.00;5.80;;;14.80;66.90;;;;;;5028358;28;20379;-80
2021/05/30 08:49:13;;;;;;;10.88;5.53;;;14.90;66.20;;;;;;5113788;27;20474;-79
2021/05/30 08:51:40;;;;;;;7.17;4.77;;;14.80;65.00;;;;;;5028411;28;20391;-84
2021/05/30 08:54:32;;;;;;;11.90;4.82;;;15.10;64.60;;;;;;5028278;28;20835;-78
2021/05/30 08:56:58;;;;;;;6.77;4.50;;;15.60;61.20;;;;;;5024948;28;20380;-79
2021/05/30 08:59:43;;;;;;;6.53;4.27;;;15.60;61.10;;;;;;5027447;28;20379;-80
2021/05/30 09:02:13;;;;;;;6.53;4.07;;;15.60;61.70;;;;;;5111735;27;20420;-79
2021/05/30 09:04:40;;;;;;;6.43;3.72;;;15.70;59.30;;;;;;5027568;28;20388;-78
2021/05/30 09:07:08;;;;;;;6.97;4.00;;;15.80;60.70;;;;;;5027891;28;20391;-80
2021/05/30 09:09:45;;;;;;;8.23;3.90;;;16.20;59.00;;;;;;5027761;28;20714;-79
2021/05/30 09:12:29;;;;;;;7.30;4.00;;;16.40;62.40;;;;;;5028407;28;20384;-82
2021/05/30 09:14:56;;;;;;;6.10;3.63;;;16.80;59.10;;;;;;5028101;28;20438;-79
2021/05/30 09:17:26;;;;;;;8.00;4.07;;;16.70;57.50;;;;;;5027941;28;20376;-80
2021/05/30 09:19:58;;;;;;;7.60;4.20;;;16.60;57.20;;;;;;5113344;27;20387;-79
2021/05/30 09:22:39;;;;;;;8.05;3.95;;;16.60;56.50;;;;;;5113318;27;20891;-80
2021/05/30 09:25:08;;;;;;;6.47;3.67;;;16.70;56.90;;;;;;5027369;28;21612;-79
2021/05/30 09:27:57;;;;;;;6.72;3.65;;;16.80;55.50;;;;;;5113161;27;20396;-78
2021/05/30 09:30:32;;;;;;;5.38;3.28;;;16.80;56.80;;;;;;5113509;27;20484;-83
2021/05/30 09:33:06;;;;;;;6.05;3.83;;;17.20;55.00;;;;;;5028258;28;20797;-81
2021/05/30 09:35:38;;;;;;;5.13;3.55;;;17.10;54.90;;;;;;5027847;28;20391;-79
2021/05/30 09:38:17;;;;;;;5.07;3.35;;;17.30;55.10;;;;;;5027736;28;20949;-79
2021/05/30 09:40:48;;;;;;;6.40;3.97;;;17.60;57.20;;;;;;5113037;27;20437;-80
2021/05/30 09:43:18;;;;;;;6.22;3.67;;;17.90;54.80;;;;;;5028037;28;20864;-82
2021/05/30 09:46:02;;;;;;;5.03;3.38;;;17.50;53.60;;;;;;5112905;27;20810;-80
2021/05/30 09:48:28;;;;;;;7.22;3.05;;;17.70;54.70;;;;;;5027465;28;20375;-79
2021/05/30 09:51:07;;;;;;;9.13;3.42;;;17.70;50.20;;;;;;5027710;28;20548;-80
2021/05/30 09:53:50;;;;;;;5.32;2.88;;;17.70;50.70;;;;;;5027399;28;20458;-79
2021/05/30 09:56:49;;;;;;;5.65;3.22;;;17.90;52.70;;;;;;5113056;27;20430;-79
2021/05/30 09:59:23;;;;;;;5.40;2.78;;;18.10;54.80;;;;;;5023158;28;20395;-79
2021/05/30 10:02:08;;;;;;;6.35;3.60;;;18.30;52.60;;;;;;5027395;28;20399;-80
2021/05/30 10:04:36;;;;;;;5.93;3.35;;;18.10;50.00;;;;;;5027416;28;20390;-82
2021/05/30 10:07:04;;;;;;;6.97;2.90;;;17.80;49.10;;;;;;5026833;28;20399;-79
2021/05/30 10:09:30;;;;;;;5.80;2.95;;;17.90;50.30;;;;;;5027360;28;20371;-79
2021/05/30 10:11:57;;;;;;;6.95;3.08;;;18.60;50.50;;;;;;5025765;28;20418;-82
2021/05/30 10:14:24;;;;;;;4.88;3.03;;;18.30;52.30;;;;;;5027053;28;20924;-82
2021/05/30 10:16:50;;;;;;;6.05;2.60;;;18.50;50.90;;;;;;5026618;28;20371;-80
2021/05/30 10:19:29;;;;;;;3.57;2.80;;;18.60;50.20;;;;;;5027455;28;20391;-81
2021/05/30 10:21:57;;;;;;;4.10;2.83;;;18.90;50.80;;;;;;5026839;28;20459;-79
2021/05/30 10:24:23;;;;;;;6.20;2.50;;;19.30;48.80;;;;;;5027158;28;20778;-80
2021/05/30 10:27:13;;;;;;;4.00;2.30;;;19.10;47.40;;;;;;5026405;28;20386;-84
2021/05/30 10:29:38;;;;;;;5.40;2.80;;;18.80;46.80;;;;;;5022947;28;20399;-79
2021/05/30 10:32:18;;;;;;;5.17;2.77;;;19.30;49.50;;;;;;5027173;28;20668;-79
2021/05/30 10:35:22;;;;;;;3.63;2.80;;;18.90;46.60;;;;;;5026656;28;20864;-80
2021/05/30 10:37:49;;;;;;;4.00;2.40;;;19.40;47.60;;;;;;5007031;28;20393;-79
2021/05/30 10:40:20;;;;;;;7.30;2.35;;;19.10;43.70;;;;;;5006207;28;20389;-78
2021/05/30 10:43:09;;;;;;;6.75;2.60;;;19.20;44.90;;;;;;5006744;28;20401;-77
2021/05/30 10:45:44;;;;;;;4.43;2.13;;;19.00;44.30;;;;;;5006401;28;20404;-77
2021/05/30 10:48:19;;;;;;;2.30;2.10;;;19.00;48.60;;;;;;5007597;28;20385;-77
2021/05/30 10:53:47;;;;;;;3.35;2.17;;;19.20;47.40;;;;;;5017808;28;20384;-83
2021/05/30 10:56:23;;;;;;;3.33;2.10;;;19.40;42.00;;;;;;5027505;28;20383;-78
2021/05/30 10:59:04;;;;;;;2.92;1.92;;;19.50;43.60;;;;;;5028093;28;20380;-77
2021/05/30 11:01:44;;;;;;;8.33;4.70;;;19.20;40.50;;;;;;5027783;28;20407;-78
2021/05/30 11:06:50;;;;;;;6.00;2.25;;;19.80;41.90;;;;;;5027798;28;20383;-78
2021/05/30 11:09:16;;;;;;;3.07;2.07;;;20.20;44.50;;;;;;5114052;28;20871;-78
2021/05/30 11:11:42;;;;;;;4.33;1.87;;;20.50;42.60;;;;;;5113616;28;20395;-77
2021/05/30 11:14:12;;;;;;;7.20;1.90;;;19.40;42.20;;;;;;5113620;28;20396;-78
2021/05/30 11:16:47;;;;;;;4.97;2.10;;;19.80;45.80;;;;;;5027656;28;20408;-85
2021/05/30 11:19:17;;;;;;;2.97;2.03;;;19.70;40.60;;;;;;5112289;27;20546;-79
2021/05/30 11:21:48;;;;;;;5.60;2.70;;;19.40;38.80;;;;;;5027860;28;20460;-78
2021/05/30 11:24:18;;;;;;;6.13;1.90;;;19.30;41.10;;;;;;5028124;28;20390;-82
2021/05/30 11:27:03;;;;;;;7.38;1.88;;;19.50;40.20;;;;;;5027768;28;20384;-79
2021/05/30 11:29:30;;;;;;;2.20;1.50;;;19.60;38.60;;;;;;5027825;28;20392;-78
2021/05/30 11:31:56;;;;;;;2.28;1.80;;;19.70;43.40;;;;;;5113616;28;20402;-78
2021/05/30 11:34:29;;;;;;;2.83;1.87;;;19.90;39.20;;;;;;5027799;28;20462;-78
2021/05/30 11:37:11;;;;;;;6.75;1.85;;;19.70;37.90;;;;;;5112993;28;20387;-77
2021/05/30 11:39:38;;;;;;;4.00;2.33;;;19.80;40.90;;;;;;5028241;28;20376;-77
2021/05/30 11:42:05;;;;;;;4.90;1.88;;;19.90;39.10;;;;;;5115090;27;20407;-78
2021/05/30 11:44:32;;;;;;;4.20;1.80;;;20.30;39.30;;;;;;5116893;27;20439;-78
2021/05/30 11:47:02;;;;;;;3.15;1.83;;;20.30;39.60;;;;;;5030777;28;20423;-77
2021/05/30 11:49:30;;;;;;;2.53;1.60;;;20.40;36.50;;;;;;5116786;27;20547;-81
2021/05/30 11:52:08;;;;;;;2.95;1.70;;;20.50;42.30;;;;;;5115874;27;20395;-78
2021/05/30 11:54:44;;;;;;;3.80;1.73;;;20.10;37.40;;;;;;5030205;28;20383;-81
2021/05/30 11:57:13;;;;;;;2.85;1.67;;;20.30;40.40;;;;;;5030084;28;20395;-80
2021/05/30 11:59:43;;;;;;;2.58;1.88;;;20.10;39.50;;;;;;5030319;28;20371;-79
2021/05/30 12:02:10;;;;;;;6.50;1.70;;;20.30;38.00;;;;;;5115706;27;20510;-80
2021/05/30 12:04:38;;;;;;;2.67;1.50;;;20.20;37.50;;;;;;5030041;28;20385;-80
2021/05/30 12:07:10;;;;;;;3.23;1.63;;;20.50;38.40;;;;;;5029660;28;20376;-79
2021/05/30 12:09:53;;;;;;;8.87;1.93;;;20.90;39.60;;;;;;5029799;28;20383;-78
2021/05/30 12:12:27;;;;;;;2.53;1.80;;;21.10;38.00;;;;;;5030071;28;20392;-80
2021/05/30 12:14:53;;;;;;;1.60;1.50;;;21.20;38.10;;;;;;5029699;28;20396;-77
2021/05/30 12:17:19;;;;;;;2.73;1.77;;;21.10;37.40;;;;;;5029200;28;20388;-80
2021/05/30 12:19:46;;;;;;;2.53;1.87;;;20.90;36.30;;;;;;5115582;27;20395;-80
2021/05/30 12:22:29;;;;;;;2.47;1.50;;;20.80;37.80;;;;;;5029169;28;20516;-77
2021/05/30 12:24:56;;;;;;;2.70;1.60;;;21.10;39.80;;;;;;5029843;28;20419;-76
2021/05/30 12:27:23;;;;;;;4.10;1.63;;;20.80;37.50;;;;;;5028531;28;20840;-76
2021/05/30 12:29:51;;;;;;;9.18;1.55;;;21.00;36.80;;;;;;5028509;28;20581;-76
2021/05/30 12:32:16;;;;;;;3.35;1.60;;;20.80;36.70;;;;;;5027814;28;20470;-76
2021/05/30 12:34:42;;;;;;;2.05;1.58;;;21.10;39.00;;;;;;5029018;28;20513;-75
2021/05/30 12:37:08;;;;;;;4.50;2.00;;;21.10;39.70;;;;;;5026493;28;20391;-76
2021/05/30 12:39:34;;;;;;;4.38;1.88;;;21.10;39.20;;;;;;5028110;28;20737;-77
2021/05/30 12:42:08;;;;;;;2.80;1.63;;;21.40;41.00;;;;;;5028724;28;20395;-78
2021/05/30 12:44:41;;;;;;;2.35;1.63;;;21.40;37.50;;;;;;5028396;28;20379;-79
2021/05/30 12:47:14;;;;;;;2.90;1.70;;;21.40;40.90;;;;;;5026426;28;20474;-79
2021/05/30 12:49:40;;;;;;;3.40;1.58;;;20.80;40.60;;;;;;5025034;28;20830;-78